Terminal Aerodrome Forecast
Issued by NWS Twin Cities, MN

Home | Current Version | Previous Version | Graphics & Text | Print | Product List | Glossary On
Versions: 1 2 3 4 5 6 7 8 9 10 11 12 13 14 15 16 17 18 19 20
000
FTUS43 KMPX 190912 AAA
TAFSTC
TAF AMD
KSTC 190912Z 1910/2006 36016KT 6SM -SN OVC015
      TEMPO 1909/1912 2SM -SN BR VV009
     FM191600 02018G23KT 2SM -SN BR OVC015
     FM200000 02009KT 4SM -SN BR OVC020=

USA.gov is the U.S. government's official web portal to all federal, state and local government web resources and services.